Time;durP1;ratioP1;P1;durP2;ratioP2;P2;SDS_P1;SDS_P2;PMS_P1;PMS_P2;Temp;Humidity;BMP_temperature;BMP_pressure;BME280_temperature;BME280_humidity;BME280_pressure;Samples;Min_cycle;Max_cycle;Signal;HPM_P1;HPM_P2
2021/05/31 00:02:23;;;;;;;32.20;22.02;;;;;;;;;;5052928;28;20507;-63
2021/05/31 00:05:09;;;;;;;28.85;19.45;;;;;;;;;;5079612;23;20128;-61
2021/05/31 00:07:54;;;;;;;31.98;21.48;;;;;;;;;;5033009;28;20088;-61
2021/05/31 00:10:40;;;;;;;34.05;22.42;;;;;;;;;;5032617;28;20127;-61
2021/05/31 00:13:25;;;;;;;32.85;22.95;;;;;;;;;;5031875;28;20384;-61
2021/05/31 00:16:11;;;;;;;36.05;20.65;;;;;;;;;;5032811;28;20049;-61
2021/05/31 00:18:56;;;;;;;44.10;23.80;;;;;;;;;;5032526;28;20046;-61
2021/05/31 00:21:41;;;;;;;38.03;22.67;;;;;;;;;;5032518;28;20072;-60
2021/05/31 00:24:27;;;;;;;37.05;24.52;;;;;;;;;;5033208;28;20052;-62
2021/05/31 00:27:12;;;;;;;40.22;22.85;;;;;;;;;;5032613;28;20442;-62
2021/05/31 00:29:58;;;;;;;38.83;23.40;;;;;;;;;;5032367;28;20136;-61
2021/05/31 00:32:43;;;;;;;35.70;22.30;;;;;;;;;;5030952;28;20523;-61
2021/05/31 00:35:28;;;;;;;38.67;22.10;;;;;;;;;;5032464;28;20484;-61
2021/05/31 00:38:14;;;;;;;34.30;23.13;;;;;;;;;;5032699;28;20099;-61
2021/05/31 00:41:01;;;;;;;46.15;24.42;;;;;;;;;;5031229;28;20488;-61
2021/05/31 00:43:46;;;;;;;40.08;23.20;;;;;;;;;;5032410;28;20068;-61
2021/05/31 00:46:32;;;;;;;39.30;22.70;;;;;;;;;;5032517;28;20510;-61
2021/05/31 00:49:20;;;;;;;40.38;21.98;;;;;;;;;;5032332;28;20052;-61
2021/05/31 00:52:06;;;;;;;51.97;25.70;;;;;;;;;;5032229;28;20388;-61
2021/05/31 00:54:53;;;;;;;49.15;23.35;;;;;;;;;;5032382;28;20045;-62
2021/05/31 00:57:38;;;;;;;128.05;32.13;;;;;;;;;;5032791;28;20057;-61
2021/05/31 01:00:23;;;;;;;130.65;30.67;;;;;;;;;;5032154;28;20049;-62
2021/05/31 01:03:09;;;;;;;127.38;26.55;;;;;;;;;;5032513;28;20057;-62
2021/05/31 01:05:56;;;;;;;182.57;35.15;;;;;;;;;;5031885;28;20414;-61
2021/05/31 01:08:45;;;;;;;132.57;32.58;;;;;;;;;;5032190;28;20050;-61
2021/05/31 01:11:31;;;;;;;223.75;34.28;;;;;;;;;;5031792;28;20053;-61
2021/05/31 01:14:23;;;;;;;158.60;32.15;;;;;;;;;;5030917;28;20482;-61
2021/05/31 01:17:44;;;;;;;245.25;35.13;;;;;;;;;;5031096;28;20419;-61
2021/05/31 01:20:48;;;;;;;151.65;27.90;;;;;;;;;;4990126;28;20164;-61
2021/05/31 01:23:34;;;;;;;203.18;31.98;;;;;;;;;;5031985;28;20519;-61
2021/05/31 01:26:23;;;;;;;212.05;32.95;;;;;;;;;;5034450;28;20096;-61
2021/05/31 01:29:08;;;;;;;198.20;34.67;;;;;;;;;;5036029;28;20041;-61
2021/05/31 01:31:54;;;;;;;177.85;32.63;;;;;;;;;;5035896;28;20053;-61
2021/05/31 01:34:40;;;;;;;340.02;43.80;;;;;;;;;;5035006;28;20045;-61
2021/05/31 01:37:25;;;;;;;166.10;31.15;;;;;;;;;;5035563;28;20088;-61
2021/05/31 01:40:11;;;;;;;175.30;27.15;;;;;;;;;;5034444;28;20055;-61
2021/05/31 01:42:57;;;;;;;164.75;29.63;;;;;;;;;;5035944;28;20502;-61
2021/05/31 01:45:43;;;;;;;157.00;26.15;;;;;;;;;;5036173;28;20044;-61
2021/05/31 01:48:29;;;;;;;131.55;26.80;;;;;;;;;;5035785;28;20060;-61
2021/05/31 01:51:14;;;;;;;137.43;26.65;;;;;;;;;;5034332;28;20064;-61
2021/05/31 01:54:00;;;;;;;176.82;30.20;;;;;;;;;;5035841;28;20045;-61
2021/05/31 01:56:46;;;;;;;167.60;29.20;;;;;;;;;;5034933;28;20053;-62
2021/05/31 01:59:32;;;;;;;117.18;24.02;;;;;;;;;;5034422;28;20056;-62
2021/05/31 02:02:18;;;;;;;107.78;24.70;;;;;;;;;;5034377;28;20045;-62
2021/05/31 02:05:06;;;;;;;138.43;25.98;;;;;;;;;;5035543;28;20446;-61
2021/05/31 02:07:52;;;;;;;244.48;34.30;;;;;;;;;;5036808;28;20053;-62
2021/05/31 02:10:37;;;;;;;195.45;30.70;;;;;;;;;;5035029;28;20041;-60
2021/05/31 02:13:23;;;;;;;138.90;28.73;;;;;;;;;;5035162;28;20099;-61
2021/05/31 02:16:11;;;;;;;276.27;38.33;;;;;;;;;;5033989;28;20384;-61
2021/05/31 02:18:56;;;;;;;163.02;30.83;;;;;;;;;;5035127;28;20038;-62
2021/05/31 02:21:41;;;;;;;168.77;26.77;;;;;;;;;;5020720;28;20067;-61
2021/05/31 02:24:27;;;;;;;136.93;24.45;;;;;;;;;;5034077;28;20050;-61
2021/05/31 02:27:13;;;;;;;136.85;27.98;;;;;;;;;;5034005;28;20052;-62
2021/05/31 02:30:01;;;;;;;132.57;27.33;;;;;;;;;;5035125;28;20184;-61
2021/05/31 02:32:53;;;;;;;230.98;32.80;;;;;;;;;;5034849;28;20073;-62
2021/05/31 02:35:39;;;;;;;185.48;31.38;;;;;;;;;;5034503;28;20131;-61
2021/05/31 02:38:24;;;;;;;216.50;33.35;;;;;;;;;;5034284;28;20061;-61
2021/05/31 02:41:10;;;;;;;163.65;30.92;;;;;;;;;;5033449;28;20053;-61
2021/05/31 02:43:55;;;;;;;126.80;28.23;;;;;;;;;;5033923;28;20451;-61
2021/05/31 02:46:40;;;;;;;167.85;34.58;;;;;;;;;;5034463;28;20076;-61
2021/05/31 02:49:26;;;;;;;303.75;38.58;;;;;;;;;;5034758;28;20668;-62
2021/05/31 02:52:11;;;;;;;187.05;31.70;;;;;;;;;;5034902;28;20041;-62
2021/05/31 02:54:57;;;;;;;133.38;28.90;;;;;;;;;;5034295;28;20053;-62
2021/05/31 02:57:43;;;;;;;248.82;39.85;;;;;;;;;;5034524;28;20049;-61
2021/05/31 03:00:28;;;;;;;283.10;40.45;;;;;;;;;;5034043;28;20557;-61
2021/05/31 03:03:13;;;;;;;333.48;42.10;;;;;;;;;;5034357;28;20456;-61
2021/05/31 03:05:59;;;;;;;239.43;37.88;;;;;;;;;;5033949;28;20570;-61
2021/05/31 03:08:44;;;;;;;211.77;37.15;;;;;;;;;;5034226;28;20059;-61
2021/05/31 03:11:30;;;;;;;233.90;37.22;;;;;;;;;;5033789;28;20152;-62
2021/05/31 03:14:15;;;;;;;190.48;37.72;;;;;;;;;;5034019;28;20049;-61
2021/05/31 03:17:00;;;;;;;341.83;45.70;;;;;;;;;;5034255;28;20419;-61
2021/05/31 03:19:46;;;;;;;163.25;33.30;;;;;;;;;;5033777;28;20510;-61
2021/05/31 03:22:31;;;;;;;264.65;41.92;;;;;;;;;;5033865;28;20123;-61
2021/05/31 03:25:16;;;;;;;227.82;40.97;;;;;;;;;;5035674;28;20041;-62
2021/05/31 03:28:02;;;;;;;134.07;37.28;;;;;;;;;;5035963;28;20403;-61
2021/05/31 03:30:47;;;;;;;295.58;46.00;;;;;;;;;;5033424;28;20607;-61
2021/05/31 03:33:33;;;;;;;251.43;40.45;;;;;;;;;;5033774;28;20123;-62
2021/05/31 03:36:18;;;;;;;278.05;43.50;;;;;;;;;;5033685;28;20053;-63
2021/05/31 03:39:05;;;;;;;407.80;48.22;;;;;;;;;;5032566;28;20580;-63
2021/05/31 03:41:50;;;;;;;403.77;53.47;;;;;;;;;;5033660;28;20056;-64
2021/05/31 03:44:36;;;;;;;448.25;54.35;;;;;;;;;;5035035;28;20140;-65
2021/05/31 03:47:21;;;;;;;317.88;49.47;;;;;;;;;;5034020;28;20049;-64
2021/05/31 03:50:07;;;;;;;322.70;49.00;;;;;;;;;;5033276;28;20053;-63
2021/05/31 03:52:54;;;;;;;318.30;43.40;;;;;;;;;;5033366;28;20049;-63
2021/05/31 03:55:39;;;;;;;276.25;43.03;;;;;;;;;;5033100;28;20054;-62
2021/05/31 03:58:25;;;;;;;265.90;39.03;;;;;;;;;;5033201;28;20049;-64
2021/05/31 04:01:11;;;;;;;238.73;39.10;;;;;;;;;;5032811;28;20492;-63
2021/05/31 04:03:58;;;;;;;192.35;33.03;;;;;;;;;;5034384;28;20132;-65
2021/05/31 04:07:21;;;;;;;133.57;29.25;;;;;;;;;;5033767;28;20055;-63
2021/05/31 04:12:53;;;;;;;163.95;28.48;;;;;;;;;;5033571;28;20088;-64
2021/05/31 04:15:38;;;;;;;181.18;26.70;;;;;;;;;;5032988;28;20046;-64
2021/05/31 04:18:24;;;;;;;194.02;31.65;;;;;;;;;;5036019;28;20056;-64
2021/05/31 04:21:09;;;;;;;116.63;24.50;;;;;;;;;;5032562;28;20439;-63
2021/05/31 04:23:54;;;;;;;136.82;26.73;;;;;;;;;;5032676;28;20054;-64
2021/05/31 04:26:40;;;;;;;185.02;31.05;;;;;;;;;;5032659;28;20048;-64
2021/05/31 04:29:25;;;;;;;180.02;30.70;;;;;;;;;;5033266;28;20404;-63
2021/05/31 04:32:13;;;;;;;196.27;32.03;;;;;;;;;;5032566;28;20077;-64
2021/05/31 04:34:59;;;;;;;101.72;23.80;;;;;;;;;;5031797;28;20050;-63
2021/05/31 04:37:44;;;;;;;151.98;26.08;;;;;;;;;;5032633;28;20060;-64
2021/05/31 04:40:29;;;;;;;162.95;28.10;;;;;;;;;;5032354;28;20089;-64
2021/05/31 04:43:19;;;;;;;168.52;27.45;;;;;;;;;;5033311;28;20542;-64
2021/05/31 04:46:04;;;;;;;210.73;28.85;;;;;;;;;;5032489;28;20107;-64
2021/05/31 04:48:50;;;;;;;169.18;30.15;;;;;;;;;;5032345;28;20045;-63
2021/05/31 04:51:37;;;;;;;156.30;29.60;;;;;;;;;;5032004;28;20060;-64
2021/05/31 04:54:22;;;;;;;218.50;31.35;;;;;;;;;;5032194;28;20048;-64
2021/05/31 04:57:08;;;;;;;146.35;26.63;;;;;;;;;;5032283;28;20104;-63
2021/05/31 04:59:55;;;;;;;242.35;31.98;;;;;;;;;;5031372;28;20458;-63
2021/05/31 05:02:40;;;;;;;187.50;28.23;;;;;;;;;;5032298;28;20069;-63
2021/05/31 05:05:25;;;;;;;135.13;24.83;;;;;;;;;;5031672;28;20522;-64
2021/05/31 05:08:11;;;;;;;167.25;26.27;;;;;;;;;;5031927;28;20499;-63
2021/05/31 05:10:56;;;;;;;155.57;27.60;;;;;;;;;;5031988;28;20131;-63
2021/05/31 05:13:42;;;;;;;131.75;26.48;;;;;;;;;;5032132;28;20184;-64
2021/05/31 05:16:27;;;;;;;151.93;25.70;;;;;;;;;;5032205;28;20063;-64
2021/05/31 05:19:13;;;;;;;174.50;28.00;;;;;;;;;;5031973;28;20666;-64
2021/05/31 05:21:58;;;;;;;175.25;28.63;;;;;;;;;;5031909;28;20492;-64
2021/05/31 05:24:43;;;;;;;115.65;26.85;;;;;;;;;;5031859;28;20048;-64
2021/05/31 05:27:29;;;;;;;173.23;27.20;;;;;;;;;;5033405;28;20508;-64
2021/05/31 05:30:17;;;;;;;154.90;23.48;;;;;;;;;;5034576;28;20050;-64
2021/05/31 05:33:03;;;;;;;66.75;22.98;;;;;;;;;;5033454;28;20124;-65
2021/05/31 05:35:53;;;;;;;90.20;26.48;;;;;;;;;;5037368;28;20409;-64
2021/05/31 05:41:49;;;;;;;115.97;24.05;;;;;;;;;;5031546;28;20052;-63
2021/05/31 05:47:42;;;;;;;84.35;21.75;;;;;;;;;;5031651;28;20041;-64
2021/05/31 05:50:29;;;;;;;132.93;25.20;;;;;;;;;;5031262;28;20507;-64
2021/05/31 05:53:14;;;;;;;84.40;24.63;;;;;;;;;;5030856;28;20045;-64
2021/05/31 05:55:59;;;;;;;81.55;20.60;;;;;;;;;;5031536;28;20500;-64
2021/05/31 05:58:47;;;;;;;98.05;23.65;;;;;;;;;;5031545;28;20057;-64
2021/05/31 06:01:33;;;;;;;131.55;26.88;;;;;;;;;;5031350;28;20403;-63
2021/05/31 06:04:18;;;;;;;79.18;20.88;;;;;;;;;;5032696;28;20052;-63
2021/05/31 06:07:04;;;;;;;70.18;23.30;;;;;;;;;;5031281;28;20046;-64
2021/05/31 06:09:49;;;;;;;114.15;25.10;;;;;;;;;;5031200;28;20407;-64
2021/05/31 06:12:34;;;;;;;108.75;28.42;;;;;;;;;;5035033;28;20053;-63
2021/05/31 06:15:20;;;;;;;84.20;27.15;;;;;;;;;;5033969;28;20053;-64
2021/05/31 06:18:08;;;;;;;82.95;26.92;;;;;;;;;;5034522;28;20053;-63
2021/05/31 06:20:53;;;;;;;91.78;27.10;;;;;;;;;;5033916;28;20037;-65
2021/05/31 06:23:38;;;;;;;112.60;25.08;;;;;;;;;;5035989;28;20069;-63
2021/05/31 06:26:24;;;;;;;102.72;23.05;;;;;;;;;;5037151;28;20041;-62
2021/05/31 06:29:09;;;;;;;84.00;21.35;;;;;;;;;;5037341;28;20520;-62
2021/05/31 06:31:55;;;;;;;82.82;20.13;;;;;;;;;;5036086;28;20140;-62
2021/05/31 06:34:40;;;;;;;80.13;22.38;;;;;;;;;;5037717;28;20042;-63
2021/05/31 06:37:25;;;;;;;64.60;21.75;;;;;;;;;;5039178;28;20048;-62
2021/05/31 06:40:31;;;;;;;65.78;23.40;;;;;;;;;;5037954;28;20077;-62
2021/05/31 06:43:16;;;;;;;49.67;23.48;;;;;;;;;;5037893;28;20045;-63
2021/05/31 06:46:02;;;;;;;76.07;23.42;;;;;;;;;;5037484;28;20154;-62
2021/05/31 06:48:47;;;;;;;65.85;23.02;;;;;;;;;;5034416;28;20045;-62
2021/05/31 06:51:33;;;;;;;64.55;24.08;;;;;;;;;;5034197;28;20144;-61
2021/05/31 06:54:18;;;;;;;55.17;25.23;;;;;;;;;;5034341;28;20041;-61
2021/05/31 06:57:04;;;;;;;52.42;23.80;;;;;;;;;;5034269;28;20095;-62
2021/05/31 06:59:49;;;;;;;46.90;22.88;;;;;;;;;;5034148;28;20411;-62
2021/05/31 07:02:35;;;;;;;46.35;20.48;;;;;;;;;;5034971;28;20056;-63
2021/05/31 07:05:20;;;;;;;50.10;24.67;;;;;;;;;;5038509;28;20048;-63
2021/05/31 07:08:06;;;;;;;50.28;24.55;;;;;;;;;;5038363;28;20060;-62
2021/05/31 07:10:53;;;;;;;37.10;24.58;;;;;;;;;;5038788;28;20099;-63
2021/05/31 07:13:39;;;;;;;41.83;24.08;;;;;;;;;;5037514;28;20124;-63
2021/05/31 07:16:24;;;;;;;36.42;24.25;;;;;;;;;;5037798;28;20046;-63
2021/05/31 07:19:09;;;;;;;30.88;20.95;;;;;;;;;;5037747;28;20112;-62
2021/05/31 07:21:55;;;;;;;32.70;19.92;;;;;;;;;;5037712;28;20055;-63
2021/05/31 07:24:40;;;;;;;35.38;21.08;;;;;;;;;;5037791;28;20049;-63
2021/05/31 07:27:26;;;;;;;30.42;21.42;;;;;;;;;;5037284;28;20104;-62
2021/05/31 07:30:13;;;;;;;29.23;19.90;;;;;;;;;;5036382;28;20045;-63
2021/05/31 07:32:59;;;;;;;29.63;22.52;;;;;;;;;;5036306;28;20046;-63
2021/05/31 07:35:44;;;;;;;26.88;19.52;;;;;;;;;;5037754;28;20046;-63
2021/05/31 07:38:30;;;;;;;25.90;19.40;;;;;;;;;;5037558;28;20474;-62
2021/05/31 07:41:16;;;;;;;27.83;20.55;;;;;;;;;;5034878;28;20135;-63
2021/05/31 07:44:12;;;;;;;29.45;20.77;;;;;;;;;;5033853;28;20049;-62
2021/05/31 07:46:57;;;;;;;29.08;21.42;;;;;;;;;;5033370;28;20049;-62
2021/05/31 07:49:43;;;;;;;28.25;20.63;;;;;;;;;;5033330;28;20071;-62
2021/05/31 07:52:33;;;;;;;25.58;21.27;;;;;;;;;;5033417;28;20072;-62
2021/05/31 07:55:18;;;;;;;23.67;19.50;;;;;;;;;;5033118;28;20045;-63
2021/05/31 07:58:05;;;;;;;29.00;20.35;;;;;;;;;;5033422;28;20407;-62
2021/05/31 08:00:50;;;;;;;30.88;22.80;;;;;;;;;;5032965;28;20128;-63
2021/05/31 08:03:36;;;;;;;24.95;20.13;;;;;;;;;;5033044;28;20045;-63
2021/05/31 08:06:22;;;;;;;21.75;19.00;;;;;;;;;;5033147;28;20095;-61
2021/05/31 08:09:07;;;;;;;22.70;19.27;;;;;;;;;;5032930;28;20073;-62
2021/05/31 08:11:53;;;;;;;25.30;19.23;;;;;;;;;;5033757;28;20072;-62
2021/05/31 08:14:38;;;;;;;22.98;19.30;;;;;;;;;;5032975;28;20052;-62
2021/05/31 08:17:23;;;;;;;23.00;20.00;;;;;;;;;;5032779;28;20496;-63
2021/05/31 08:20:09;;;;;;;24.05;17.70;;;;;;;;;;5032411;28;20535;-62
2021/05/31 08:22:55;;;;;;;20.73;17.80;;;;;;;;;;5032780;28;20052;-62
2021/05/31 08:25:43;;;;;;;21.95;18.92;;;;;;;;;;5032639;28;20076;-62
2021/05/31 08:28:28;;;;;;;21.63;19.38;;;;;;;;;;5032598;28;20065;-62
2021/05/31 08:31:14;;;;;;;21.30;18.23;;;;;;;;;;5032567;28;20416;-62
2021/05/31 08:33:59;;;;;;;18.45;16.55;;;;;;;;;;5031985;28;20146;-61
2021/05/31 08:36:45;;;;;;;20.02;17.63;;;;;;;;;;5032482;28;20048;-63
2021/05/31 08:39:30;;;;;;;19.92;16.50;;;;;;;;;;5032376;28;20064;-62
2021/05/31 08:42:15;;;;;;;20.73;17.92;;;;;;;;;;5031385;28;20637;-62
2021/05/31 08:45:00;;;;;;;22.38;18.98;;;;;;;;;;5032380;28;20168;-62
2021/05/31 08:47:46;;;;;;;20.75;18.38;;;;;;;;;;5032235;28;20056;-62
2021/05/31 08:50:32;;;;;;;22.85;17.27;;;;;;;;;;5032178;28;20052;-62
2021/05/31 08:53:17;;;;;;;21.25;17.20;;;;;;;;;;5032294;28;20411;-63
2021/05/31 08:56:04;;;;;;;18.45;15.02;;;;;;;;;;5032400;28;20173;-62
2021/05/31 08:58:50;;;;;;;20.67;16.98;;;;;;;;;;5032132;28;20559;-62
2021/05/31 09:01:35;;;;;;;21.63;17.73;;;;;;;;;;5031861;28;20058;-62
2021/05/31 09:04:21;;;;;;;23.63;17.52;;;;;;;;;;5032004;28;20045;-62
2021/05/31 09:07:06;;;;;;;19.88;16.15;;;;;;;;;;5032098;28;20052;-63
2021/05/31 09:09:53;;;;;;;20.48;18.30;;;;;;;;;;5031770;28;20041;-62
2021/05/31 09:12:39;;;;;;;22.55;17.70;;;;;;;;;;5032191;28;20056;-62
2021/05/31 09:15:24;;;;;;;21.17;18.15;;;;;;;;;;5032070;28;20048;-62
2021/05/31 09:18:09;;;;;;;18.75;16.73;;;;;;;;;;5031954;28;20053;-62
2021/05/31 09:20:54;;;;;;;18.80;16.08;;;;;;;;;;5031681;28;20059;-62
2021/05/31 09:23:40;;;;;;;21.80;17.38;;;;;;;;;;5032158;28;20103;-62
2021/05/31 09:26:25;;;;;;;20.40;18.00;;;;;;;;;;5031961;28;20048;-62
2021/05/31 09:29:11;;;;;;;21.83;19.17;;;;;;;;;;5031813;28;20123;-62
2021/05/31 09:32:02;;;;;;;19.30;17.15;;;;;;;;;;5031943;28;20132;-62
2021/05/31 09:34:57;;;;;;;26.67;16.80;;;;;;;;;;5031760;28;20192;-62
2021/05/31 09:37:47;;;;;;;23.00;18.08;;;;;;;;;;5031983;28;20045;-63
2021/05/31 09:40:33;;;;;;;20.90;17.83;;;;;;;;;;5031566;28;20443;-63
2021/05/31 09:43:18;;;;;;;17.42;14.40;;;;;;;;;;5031771;28;20045;-62
2021/05/31 09:46:03;;;;;;;20.30;16.40;;;;;;;;;;5033111;28;20049;-62
2021/05/31 09:48:49;;;;;;;19.52;15.80;;;;;;;;;;5035703;28;20071;-63
2021/05/31 09:51:34;;;;;;;16.67;14.88;;;;;;;;;;5035354;28;20082;-62
2021/05/31 09:54:36;;;;;;;16.65;14.95;;;;;;;;;;5035640;28;20064;-62
2021/05/31 09:57:24;;;;;;;15.52;13.95;;;;;;;;;;5035551;28;20179;-63
2021/05/31 10:00:54;;;;;;;16.88;15.07;;;;;;;;;;5035198;28;20053;-62
2021/05/31 10:06:19;;;;;;;16.33;14.10;;;;;;;;;;5035187;28;20053;-63
2021/05/31 10:09:04;;;;;;;15.15;13.65;;;;;;;;;;5035389;28;20056;-62
2021/05/31 10:11:50;;;;;;;13.32;12.02;;;;;;;;;;5034230;28;20044;-62
2021/05/31 10:14:35;;;;;;;14.13;12.13;;;;;;;;;;5035111;28;20152;-62
2021/05/31 10:17:23;;;;;;;13.48;12.10;;;;;;;;;;5035194;28;20042;-62
2021/05/31 10:20:08;;;;;;;14.38;12.73;;;;;;;;;;5035106;28;20068;-62
2021/05/31 10:22:54;;;;;;;12.48;10.82;;;;;;;;;;5035095;28;20125;-63
2021/05/31 10:25:43;;;;;;;12.88;11.48;;;;;;;;;;5035097;28;20554;-62
2021/05/31 10:28:32;;;;;;;12.75;11.55;;;;;;;;;;5033958;28;20076;-63
2021/05/31 10:31:18;;;;;;;12.02;10.77;;;;;;;;;;5034567;28;20045;-62
2021/05/31 10:34:03;;;;;;;13.05;11.80;;;;;;;;;;5034780;28;20052;-63
2021/05/31 10:36:53;;;;;;;12.82;11.23;;;;;;;;;;5037501;28;20095;-64
2021/05/31 10:39:38;;;;;;;11.43;9.75;;;;;;;;;;5034929;28;20056;-63
2021/05/31 10:42:24;;;;;;;9.50;7.95;;;;;;;;;;5038967;28;20045;-64
2021/05/31 10:45:21;;;;;;;9.02;7.88;;;;;;;;;;5039131;28;20412;-64
2021/05/31 10:48:09;;;;;;;7.68;6.88;;;;;;;;;;5038018;28;20057;-62
2021/05/31 10:50:58;;;;;;;9.00;6.88;;;;;;;;;;5038350;28;20049;-62
2021/05/31 10:53:43;;;;;;;7.18;6.40;;;;;;;;;;5034551;28;20049;-63
2021/05/31 10:56:29;;;;;;;8.32;5.60;;;;;;;;;;5034346;28;20393;-62
2021/05/31 10:59:19;;;;;;;7.10;4.68;;;;;;;;;;5033751;28;20049;-62
2021/05/31 11:02:04;;;;;;;4.85;4.13;;;;;;;;;;5034335;28;20127;-62
2021/05/31 11:04:50;;;;;;;3.58;2.88;;;;;;;;;;5034067;28;20404;-63
2021/05/31 11:07:36;;;;;;;4.18;3.20;;;;;;;;;;5034326;28;20049;-62
2021/05/31 11:10:21;;;;;;;4.95;3.53;;;;;;;;;;5033846;28;20244;-62
2021/05/31 11:13:16;;;;;;;4.82;3.03;;;;;;;;;;5034015;28;20411;-62
2021/05/31 11:16:03;;;;;;;3.88;2.28;;;;;;;;;;5033994;28;20426;-63
2021/05/31 11:18:49;;;;;;;2.97;2.30;;;;;;;;;;5035940;28;20051;-64
2021/05/31 11:21:40;;;;;;;3.33;2.75;;;;;;;;;;5036525;28;20101;-64
2021/05/31 11:24:25;;;;;;;3.75;2.90;;;;;;;;;;5034417;28;20059;-63
2021/05/31 11:27:10;;;;;;;3.20;2.50;;;;;;;;;;5033889;28;20656;-63
2021/05/31 11:29:58;;;;;;;4.68;3.00;;;;;;;;;;5033338;28;20151;-63
2021/05/31 11:32:43;;;;;;;3.03;2.83;;;;;;;;;;5033864;28;20055;-63
2021/05/31 11:35:29;;;;;;;3.70;3.28;;;;;;;;;;5033717;28;20511;-62
2021/05/31 11:38:20;;;;;;;4.80;3.85;;;;;;;;;;5033669;28;20139;-63
2021/05/31 11:41:08;;;;;;;3.97;3.42;;;;;;;;;;5033513;28;20064;-62
2021/05/31 11:43:54;;;;;;;5.60;3.70;;;;;;;;;;5034189;28;20052;-63
2021/05/31 11:46:52;;;;;;;10.02;4.20;;;;;;;;;;5035393;28;20092;-62
2021/05/31 11:49:38;;;;;;;4.70;4.03;;;;;;;;;;5033151;28;20072;-63
2021/05/31 11:52:24;;;;;;;5.15;4.55;;;;;;;;;;5033372;28;20048;-63
2021/05/31 11:55:14;;;;;;;6.68;4.93;;;;;;;;;;5033416;28;20083;-63
2021/05/31 11:57:59;;;;;;;5.20;4.38;;;;;;;;;;5033298;28;20045;-62
2021/05/31 12:00:44;;;;;;;6.20;5.20;;;;;;;;;;5033033;28;20060;-64
2021/05/31 12:03:29;;;;;;;7.07;5.07;;;;;;;;;;5033272;28;20064;-63
2021/05/31 12:06:15;;;;;;;5.03;4.53;;;;;;;;;;5035573;28;20045;-63
2021/05/31 12:09:03;;;;;;;9.25;5.20;;;;;;;;;;5032870;28;20041;-63
2021/05/31 12:11:50;;;;;;;8.50;5.35;;;;;;;;;;5031880;28;20052;-63
2021/05/31 12:14:43;;;;;;;6.00;5.40;;;;;;;;;;5033041;28;20059;-63
2021/05/31 12:17:29;;;;;;;5.45;4.95;;;;;;;;;;5032902;28;20045;-63
2021/05/31 12:20:14;;;;;;;6.10;5.50;;;;;;;;;;5032779;28;20135;-63
2021/05/31 12:23:00;;;;;;;5.75;5.18;;;;;;;;;;5032898;28;20049;-63
2021/05/31 12:25:45;;;;;;;6.63;5.68;;;;;;;;;;5032574;28;20076;-63
2021/05/31 12:28:31;;;;;;;8.60;6.65;;;;;;;;;;5032765;28;20045;-63
2021/05/31 12:31:16;;;;;;;9.30;6.55;;;;;;;;;;5032536;28;20076;-62
2021/05/31 12:34:02;;;;;;;8.82;6.20;;;;;;;;;;5032736;28;20049;-63
2021/05/31 12:36:47;;;;;;;7.93;6.03;;;;;;;;;;5032586;28;20044;-63
2021/05/31 12:39:32;;;;;;;7.20;4.95;;;;;;;;;;5031260;28;20435;-63
2021/05/31 12:42:31;;;;;;;7.13;4.93;;;;;;;;;;5031569;28;20048;-63
2021/05/31 12:45:17;;;;;;;6.10;5.50;;;;;;;;;;5032395;28;20420;-63
2021/05/31 12:48:12;;;;;;;8.52;5.22;;;;;;;;;;5032505;28;20055;-62
2021/05/31 12:51:12;;;;;;;7.75;5.43;;;;;;;;;;5032102;28;20048;-63
2021/05/31 12:54:01;;;;;;;7.40;4.60;;;;;;;;;;5032249;28;20052;-63
2021/05/31 12:56:47;;;;;;;7.40;4.68;;;;;;;;;;5032272;28;20060;-63
2021/05/31 12:59:32;;;;;;;6.13;5.47;;;;;;;;;;5031877;28;20060;-63
2021/05/31 13:02:18;;;;;;;4.88;4.40;;;;;;;;;;5032215;28;20048;-62
2021/05/31 13:05:06;;;;;;;4.50;4.10;;;;;;;;;;5031979;28;20076;-62
2021/05/31 13:07:51;;;;;;;5.57;4.18;;;;;;;;;;5032029;28;20172;-62
2021/05/31 13:10:39;;;;;;;5.80;4.57;;;;;;;;;;5030951;28;20045;-63
2021/05/31 13:13:37;;;;;;;4.97;4.05;;;;;;;;;;5032113;28;20063;-62
2021/05/31 13:16:29;;;;;;;4.80;4.30;;;;;;;;;;5032172;28;20051;-63
2021/05/31 13:19:18;;;;;;;4.40;4.00;;;;;;;;;;5032060;28;20072;-63
2021/05/31 13:22:04;;;;;;;5.95;3.67;;;;;;;;;;5031729;28;20415;-63
2021/05/31 13:24:51;;;;;;;3.35;3.05;;;;;;;;;;5032039;28;20052;-63
2021/05/31 13:27:36;;;;;;;4.45;3.10;;;;;;;;;;5031907;28;20045;-63
2021/05/31 13:30:23;;;;;;;2.70;2.30;;;;;;;;;;5031671;28;20048;-63
2021/05/31 13:33:10;;;;;;;4.18;2.50;;;;;;;;;;5031799;28;20044;-63
2021/05/31 13:35:56;;;;;;;2.95;2.20;;;;;;;;;;5031892;28;20130;-63
2021/05/31 13:38:41;;;;;;;2.30;2.10;;;;;;;;;;5031873;28;20056;-63
2021/05/31 13:41:33;;;;;;;4.13;1.50;;;;;;;;;;5031728;28;20209;-63
2021/05/31 13:44:18;;;;;;;;;;;;;;;;;;5032098;28;20048;-63
2021/05/31 13:47:03;;;;;;;2.63;1.17;;;;;;;;;;5031724;28;20398;-64
2021/05/31 13:49:48;;;;;;;0.98;0.90;;;;;;;;;;5031607;28;20119;-63
2021/05/31 13:52:34;;;;;;;2.20;1.20;;;;;;;;;;5031695;28;20723;-63
2021/05/31 13:55:19;;;;;;;6.97;1.67;;;;;;;;;;5031751;28;20411;-63
2021/05/31 13:58:08;;;;;;;2.40;1.10;;;;;;;;;;5031733;28;20443;-64
2021/05/31 14:00:54;;;;;;;2.20;0.95;;;;;;;;;;5031820;28;20451;-63
2021/05/31 14:03:39;;;;;;;1.67;0.80;;;;;;;;;;5031897;28;20048;-63
2021/05/31 14:06:24;;;;;;;2.20;1.20;;;;;;;;;;5032038;28;20123;-63
2021/05/31 14:09:09;;;;;;;0.90;0.80;;;;;;;;;;5031938;28;20049;-64
2021/05/31 14:11:55;;;;;;;1.20;0.70;;;;;;;;;;5031879;28;20046;-64
2021/05/31 14:14:41;;;;;;;2.40;0.80;;;;;;;;;;5032053;28;20052;-63
2021/05/31 14:17:26;;;;;;;1.80;0.80;;;;;;;;;;5031833;28;20128;-63
2021/05/31 14:20:12;;;;;;;1.58;0.60;;;;;;;;;;5030598;28;20172;-64
2021/05/31 14:23:01;;;;;;;1.98;1.00;;;;;;;;;;5031632;28;20057;-64
2021/05/31 14:25:46;;;;;;;1.67;1.00;;;;;;;;;;5031782;28;20048;-64
2021/05/31 14:28:31;;;;;;;3.38;1.05;;;;;;;;;;5031666;28;20055;-64
2021/05/31 14:31:17;;;;;;;1.38;0.90;;;;;;;;;;5031406;28;20057;-63
2021/05/31 14:34:02;;;;;;;2.55;0.90;;;;;;;;;;5034744;28;20157;-64
2021/05/31 14:36:47;;;;;;;3.20;1.20;;;;;;;;;;5035070;28;20145;-64
2021/05/31 14:39:33;;;;;;;5.72;1.17;;;;;;;;;;5034566;28;20691;-64
2021/05/31 14:42:18;;;;;;;1.73;0.68;;;;;;;;;;5034870;28;20053;-63
2021/05/31 14:45:06;;;;;;;1.35;0.90;;;;;;;;;;5034656;28;20242;-63
2021/05/31 14:47:52;;;;;;;3.38;1.25;;;;;;;;;;5034594;28;20640;-63
2021/05/31 14:50:38;;;;;;;0.88;0.63;;;;;;;;;;5034377;28;20052;-63
2021/05/31 14:53:23;;;;;;;1.77;1.50;;;;;;;;;;5034603;28;20068;-63
2021/05/31 14:56:08;;;;;;;3.97;1.10;;;;;;;;;;5034880;28;20057;-64
2021/05/31 14:58:54;;;;;;;1.55;1.10;;;;;;;;;;5035269;28;20052;-63
2021/05/31 15:01:40;;;;;;;3.05;1.20;;;;;;;;;;5034704;28;20458;-63
2021/05/31 15:04:25;;;;;;;1.27;0.90;;;;;;;;;;5034094;28;20045;-63
2021/05/31 15:07:11;;;;;;;2.83;0.95;;;;;;;;;;5034251;28;20514;-63
2021/05/31 15:09:56;;;;;;;4.78;1.10;;;;;;;;;;5033986;28;20068;-63
2021/05/31 15:12:42;;;;;;;2.53;0.80;;;;;;;;;;5034131;28;20128;-63
2021/05/31 15:15:27;;;;;;;1.60;1.15;;;;;;;;;;5034126;28;20045;-62
2021/05/31 15:18:13;;;;;;;1.70;1.13;;;;;;;;;;5034129;28;20047;-63
2021/05/31 15:20:58;;;;;;;1.70;0.88;;;;;;;;;;5033943;28;20072;-63
2021/05/31 15:23:43;;;;;;;1.52;0.90;;;;;;;;;;5034331;28;20050;-64
2021/05/31 15:26:29;;;;;;;2.08;1.00;;;;;;;;;;5034466;28;20133;-65
2021/05/31 15:29:14;;;;;;;1.33;1.15;;;;;;;;;;5033730;28;20099;-63
2021/05/31 15:32:03;;;;;;;1.63;1.05;;;;;;;;;;5033895;28;20120;-63
2021/05/31 15:34:49;;;;;;;2.95;1.23;;;;;;;;;;5033794;28;20068;-63
2021/05/31 15:37:34;;;;;;;4.20;1.05;;;;;;;;;;5033644;28;20069;-64
2021/05/31 15:40:20;;;;;;;2.10;1.08;;;;;;;;;;5033568;28;20055;-63
2021/05/31 15:43:05;;;;;;;6.75;1.30;;;;;;;;;;5033507;28;20550;-63
2021/05/31 15:45:53;;;;;;;4.93;1.00;;;;;;;;;;5033849;28;20053;-63
2021/05/31 15:48:38;;;;;;;4.55;1.00;;;;;;;;;;5033823;28;20049;-64
2021/05/31 15:51:24;;;;;;;1.95;1.10;;;;;;;;;;5033965;28;20055;-65
2021/05/31 15:54:09;;;;;;;1.77;1.35;;;;;;;;;;5033713;28;20522;-64
2021/05/31 15:56:55;;;;;;;2.42;0.80;;;;;;;;;;5033492;28;20053;-63
2021/05/31 15:59:42;;;;;;;1.00;0.80;;;;;;;;;;5032641;28;20048;-64
2021/05/31 16:02:28;;;;;;;2.15;0.82;;;;;;;;;;5017984;28;20065;-64
2021/05/31 16:05:13;;;;;;;2.72;0.80;;;;;;;;;;5031046;28;20064;-63
2021/05/31 16:08:01;;;;;;;2.75;1.10;;;;;;;;;;5030628;28;20051;-63
2021/05/31 16:10:46;;;;;;;2.40;1.08;;;;;;;;;;5029814;28;20050;-63
2021/05/31 16:13:32;;;;;;;1.20;1.10;;;;;;;;;;5029901;28;20049;-62
2021/05/31 16:16:17;;;;;;;1.90;1.20;;;;;;;;;;5023296;28;20064;-62
2021/05/31 16:19:04;;;;;;;3.05;1.17;;;;;;;;;;5030814;28;20041;-62
2021/05/31 16:21:49;;;;;;;1.80;1.25;;;;;;;;;;5030119;28;20072;-62
2021/05/31 16:24:45;;;;;;;1.98;1.20;;;;;;;;;;5030624;28;20132;-63
2021/05/31 16:27:30;;;;;;;1.90;1.00;;;;;;;;;;5020461;28;20168;-63
2021/05/31 16:30:16;;;;;;;1.92;1.20;;;;;;;;;;5009477;28;20492;-63